EFW657G EGKK-LIPX
Flight info
| Callsign | EFW657G |
|---|---|
| Flight time | 1h 36m |
| Altitude | 37000 |
| Route | SFD4Z SFD Y47 BENBO UL612 VEULE DCT TEPRI UN491 POGZI DCT GELTA DCT LUVAL DCT SHARA DCT DEVDI DCT RIPUS DCT GERSA DCT SOSON DCT ODINA DCT LEGLO/N0365F180 L615 OSKOR/N0369F190 L615 NEVNI NEVNI1M |
| Aircraft | A321/M-SDE3FGIJ1KRWXY/SB1 |
Departure
| Time | 2026-05-04 16:14 |
|---|---|
| Airport | London Gatwick Airport (EGKK) |
Arrival
| Time | 2026-05-04 17:51 |
|---|---|
| Airport | Verona Villafranca Valerio Catullo Airport (LIPX) |
| Time | Latitude | Longitude | Altitude | Speed | Heading |
|---|---|---|---|---|---|
| 2026-05-04 15:39 | 51.15825 | -0.16961 | 205 ft | 0 kts | 89° |
| 2026-05-04 15:58 | 51.15823 | -0.16998 | 208 ft | 4 kts | 81° |
| 2026-05-04 15:59 | 51.15819 | -0.17029 | 215 ft | 0 kts | 75° |
| 2026-05-04 16:00 | 51.15819 | -0.17058 | 215 ft | 3 kts | 129° |
| 2026-05-04 16:00 | 51.15834 | -0.17073 | 215 ft | 2 kts | 161° |
| 2026-05-04 16:00 | 51.15851 | -0.17082 | 216 ft | 3 kts | 161° |
| 2026-05-04 16:01 | 51.15864 | -0.17088 | 217 ft | 0 kts | 170° |
| 2026-05-04 16:03 | 51.15862 | -0.17088 | 217 ft | 1 kts | 170° |
| 2026-05-04 16:03 | 51.15849 | -0.17087 | 217 ft | 4 kts | 182° |
| 2026-05-04 16:04 | 51.15818 | -0.17123 | 213 ft | 8 kts | 239° |
| 2026-05-04 16:04 | 51.15787 | -0.17331 | 209 ft | 11 kts | 257° |
| 2026-05-04 16:04 | 51.15776 | -0.17408 | 213 ft | 0 kts | 257° |
| 2026-05-04 16:05 | 51.15775 | -0.17417 | 211 ft | 2 kts | 257° |
| 2026-05-04 16:05 | 51.15711 | -0.17496 | 214 ft | 12 kts | 170° |
| 2026-05-04 16:06 | 51.15622 | -0.17467 | 209 ft | 14 kts | 167° |
| 2026-05-04 16:06 | 51.15505 | -0.17756 | 205 ft | 15 kts | 258° |
| 2026-05-04 16:07 | 51.15474 | -0.17986 | 216 ft | 16 kts | 257° |
| 2026-05-04 16:07 | 51.15458 | -0.18104 | 211 ft | 4 kts | 257° |
| 2026-05-04 16:08 | 51.15449 | -0.18164 | 207 ft | 8 kts | 257° |
| 2026-05-04 16:08 | 51.15291 | -0.18241 | 209 ft | 13 kts | 165° |
| 2026-05-04 16:09 | 51.15177 | -0.18399 | 208 ft | 15 kts | 257° |
| 2026-05-04 16:09 | 51.15124 | -0.18782 | 209 ft | 19 kts | 257° |
| 2026-05-04 16:10 | 51.15068 | -0.19197 | 210 ft | 13 kts | 257° |
| 2026-05-04 16:11 | 51.14929 | -0.19537 | 210 ft | 19 kts | 258° |
| 2026-05-04 16:11 | 51.14900 | -0.19742 | 207 ft | 19 kts | 253° |
| 2026-05-04 16:12 | 51.14802 | -0.20443 | 204 ft | 21 kts | 258° |
| 2026-05-04 16:12 | 51.14708 | -0.21140 | 213 ft | 15 kts | 258° |
| 2026-05-04 16:13 | 51.14595 | -0.21319 | 215 ft | 14 kts | 170° |
| 2026-05-04 16:13 | 51.14561 | -0.20898 | 208 ft | 54 kts | 76° |
| 2026-05-04 16:14 | 51.14919 | -0.18299 | 299 ft | 167 kts | 78° |
| 2026-05-04 16:14 | 51.15376 | -0.14816 | 1834 ft | 165 kts | 78° |
| 2026-05-04 16:15 | 51.16166 | -0.08496 | 2647 ft | 224 kts | 94° |
| 2026-05-04 16:16 | 51.14058 | -0.04859 | 3570 ft | 259 kts | 161° |
| 2026-05-04 16:16 | 51.08589 | -0.02968 | 5670 ft | 276 kts | 165° |
| 2026-05-04 16:17 | 51.04850 | -0.01250 | 7119 ft | 279 kts | 163° |
| 2026-05-04 16:18 | 50.99230 | 0.01458 | 9343 ft | 286 kts | 164° |
| 2026-05-04 16:18 | 50.97316 | 0.02349 | 10086 ft | 287 kts | 164° |
| 2026-05-04 16:19 | 50.91488 | 0.05043 | 12114 ft | 295 kts | 165° |
| 2026-05-04 16:19 | 50.87519 | 0.06873 | 13484 ft | 300 kts | 165° |
| 2026-05-04 16:20 | 50.81416 | 0.09697 | 15258 ft | 309 kts | 164° |
| 2026-05-04 16:20 | 50.77246 | 0.11514 | 16440 ft | 313 kts | 172° |
| 2026-05-04 16:21 | 50.70476 | 0.10186 | 17158 ft | 353 kts | 193° |
| 2026-05-04 16:22 | 50.65509 | 0.08360 | 17669 ft | 375 kts | 193° |
| 2026-05-04 16:22 | 50.57756 | 0.05553 | 19076 ft | 385 kts | 192° |
| 2026-05-04 16:23 | 50.49860 | 0.02774 | 20482 ft | 390 kts | 188° |
| 2026-05-04 16:24 | 50.39501 | 0.06844 | 22276 ft | 399 kts | 147° |
| 2026-05-04 16:25 | 50.34884 | 0.11644 | 23146 ft | 403 kts | 148° |
| 2026-05-04 16:26 | 50.25419 | 0.21358 | 24679 ft | 410 kts | 148° |
| 2026-05-04 16:26 | 50.18228 | 0.28738 | 25758 ft | 415 kts | 148° |
| 2026-05-04 16:27 | 50.13399 | 0.33709 | 26483 ft | 417 kts | 148° |
| 2026-05-04 16:28 | 50.06075 | 0.41221 | 27510 ft | 423 kts | 148° |
| 2026-05-04 16:28 | 49.98653 | 0.48804 | 28507 ft | 428 kts | 149° |
| 2026-05-04 16:29 | 49.88626 | 0.58989 | 29686 ft | 434 kts | 149° |
| 2026-05-04 16:30 | 49.81905 | 0.68400 | 30490 ft | 439 kts | 135° |
| 2026-05-04 16:31 | 49.77799 | 0.75390 | 31046 ft | 438 kts | 135° |
| 2026-05-04 16:31 | 49.71609 | 0.85827 | 31873 ft | 438 kts | 135° |
| 2026-05-04 16:32 | 49.65428 | 0.96245 | 32604 ft | 439 kts | 135° |
| 2026-05-04 16:33 | 49.61289 | 1.03179 | 33141 ft | 439 kts | 136° |
| 2026-05-04 16:33 | 49.57155 | 1.10086 | 33698 ft | 437 kts | 136° |
| 2026-05-04 16:34 | 49.53034 | 1.16963 | 34192 ft | 437 kts | 136° |
| 2026-05-04 16:34 | 49.50973 | 1.20398 | 34387 ft | 437 kts | 136° |
| 2026-05-04 16:35 | 49.44784 | 1.30677 | 34953 ft | 438 kts | 136° |
| 2026-05-04 16:35 | 49.38558 | 1.40968 | 34973 ft | 438 kts | 136° |
| 2026-05-04 16:36 | 49.32350 | 1.51181 | 34962 ft | 438 kts | 136° |
| 2026-05-04 16:37 | 49.26120 | 1.61410 | 34947 ft | 438 kts | 136° |
| 2026-05-04 16:38 | 49.17800 | 1.75013 | 34942 ft | 437 kts | 136° |
| 2026-05-04 16:39 | 49.07357 | 1.91975 | 34948 ft | 439 kts | 137° |
| 2026-05-04 16:40 | 48.98963 | 2.05523 | 34945 ft | 439 kts | 137° |
| 2026-05-04 16:41 | 48.88447 | 2.22392 | 34951 ft | 439 kts | 137° |
| 2026-05-04 16:43 | 48.77927 | 2.39176 | 34946 ft | 439 kts | 137° |
| 2026-05-04 16:43 | 48.71604 | 2.49196 | 34948 ft | 438 kts | 137° |
| 2026-05-04 16:45 | 48.58964 | 2.69206 | 34948 ft | 440 kts | 134° |
| 2026-05-04 16:46 | 48.55118 | 2.81838 | 34937 ft | 458 kts | 103° |
| 2026-05-04 16:46 | 48.54695 | 2.91499 | 34937 ft | 463 kts | 97° |
| 2026-05-04 16:47 | 48.54027 | 3.10892 | 34938 ft | 464 kts | 98° |
| 2026-05-04 16:48 | 48.53329 | 3.30325 | 34934 ft | 464 kts | 97° |
| 2026-05-04 16:49 | 48.52613 | 3.49770 | 34931 ft | 464 kts | 98° |
| 2026-05-04 16:50 | 48.51851 | 3.69185 | 34931 ft | 463 kts | 98° |
| 2026-05-04 16:51 | 48.51328 | 3.82099 | 34937 ft | 463 kts | 98° |
| 2026-05-04 16:52 | 48.50283 | 4.03001 | 34941 ft | 458 kts | 106° |
| 2026-05-04 16:53 | 48.48111 | 4.15263 | 34939 ft | 455 kts | 110° |
| 2026-05-04 16:54 | 48.44754 | 4.33628 | 34927 ft | 454 kts | 110° |
| 2026-05-04 16:55 | 48.39663 | 4.61119 | 34933 ft | 454 kts | 111° |
| 2026-05-04 16:56 | 48.35389 | 4.83915 | 34945 ft | 453 kts | 111° |
| 2026-05-04 16:57 | 48.32803 | 4.97563 | 34943 ft | 453 kts | 111° |
| 2026-05-04 16:58 | 48.29312 | 5.15771 | 34936 ft | 453 kts | 111° |
| 2026-05-04 17:00 | 48.23838 | 5.42976 | 34954 ft | 454 kts | 112° |
| 2026-05-04 17:01 | 48.19228 | 5.65630 | 34982 ft | 454 kts | 112° |
| 2026-05-04 17:02 | 48.15516 | 5.83658 | 34995 ft | 454 kts | 113° |
| 2026-05-04 17:03 | 48.12709 | 5.97207 | 34995 ft | 454 kts | 113° |
| 2026-05-04 17:03 | 48.09886 | 6.10756 | 34998 ft | 455 kts | 113° |
| 2026-05-04 17:04 | 48.06073 | 6.28800 | 35005 ft | 455 kts | 113° |
| 2026-05-04 17:05 | 48.02251 | 6.46848 | 35013 ft | 456 kts | 113° |
| 2026-05-04 17:06 | 47.99359 | 6.60382 | 35013 ft | 456 kts | 113° |
| 2026-05-04 17:07 | 47.96683 | 6.72319 | 35014 ft | 454 kts | 116° |
| 2026-05-04 17:07 | 47.93915 | 6.82432 | 35007 ft | 452 kts | 118° |
| 2026-05-04 17:08 | 47.90251 | 6.95405 | 35014 ft | 453 kts | 117° |
| 2026-05-04 17:09 | 47.87878 | 7.04109 | 35011 ft | 453 kts | 117° |
| 2026-05-04 17:09 | 47.85509 | 7.12809 | 35011 ft | 453 kts | 117° |
| 2026-05-04 17:10 | 47.79531 | 7.34522 | 35010 ft | 453 kts | 117° |
| 2026-05-04 17:11 | 47.77123 | 7.43173 | 35007 ft | 453 kts | 117° |
| 2026-05-04 17:12 | 47.73248 | 7.55931 | 35030 ft | 447 kts | 127° |
| 2026-05-04 17:13 | 47.64094 | 7.74500 | 35023 ft | 447 kts | 131° |
| 2026-05-04 17:14 | 47.56718 | 7.89332 | 35012 ft | 447 kts | 131° |
| 2026-05-04 17:15 | 47.51153 | 8.00425 | 35006 ft | 447 kts | 131° |
| 2026-05-04 17:16 | 47.43712 | 8.15173 | 34996 ft | 448 kts | 131° |
| 2026-05-04 17:17 | 47.36278 | 8.29874 | 35003 ft | 448 kts | 131° |
| 2026-05-04 17:18 | 47.28592 | 8.44319 | 34999 ft | 444 kts | 142° |
| 2026-05-04 17:18 | 47.23493 | 8.49180 | 34998 ft | 434 kts | 161° |
| 2026-05-04 17:19 | 47.17703 | 8.51211 | 34996 ft | 427 kts | 178° |
| 2026-05-04 17:20 | 47.05873 | 8.52918 | 34975 ft | 427 kts | 178° |
| 2026-05-04 17:20 | 46.97034 | 8.54208 | 34993 ft | 423 kts | 178° |
| 2026-05-04 17:21 | 46.85298 | 8.55893 | 35015 ft | 423 kts | 178° |
| 2026-05-04 17:22 | 46.79431 | 8.56729 | 35033 ft | 423 kts | 178° |
| 2026-05-04 17:23 | 46.67662 | 8.58414 | 35042 ft | 425 kts | 178° |
| 2026-05-04 17:24 | 46.58809 | 8.59684 | 35084 ft | 427 kts | 178° |
| 2026-05-04 17:25 | 46.47006 | 8.61361 | 35105 ft | 427 kts | 178° |
| 2026-05-04 17:26 | 46.35161 | 8.63044 | 35099 ft | 428 kts | 178° |
| 2026-05-04 17:27 | 46.20335 | 8.65101 | 35069 ft | 428 kts | 178° |
| 2026-05-04 17:27 | 46.14469 | 8.66682 | 34737 ft | 436 kts | 162° |
| 2026-05-04 17:28 | 46.09311 | 8.71414 | 34263 ft | 448 kts | 140° |
| 2026-05-04 17:29 | 46.03934 | 8.82605 | 33477 ft | 457 kts | 124° |
| 2026-05-04 17:29 | 45.99128 | 8.94412 | 32654 ft | 459 kts | 123° |
| 2026-05-04 17:30 | 45.94288 | 9.06277 | 31882 ft | 458 kts | 123° |
| 2026-05-04 17:31 | 45.91061 | 9.14169 | 31069 ft | 458 kts | 123° |
| 2026-05-04 17:31 | 45.86289 | 9.25784 | 29308 ft | 443 kts | 123° |
| 2026-05-04 17:32 | 45.83192 | 9.33302 | 28184 ft | 432 kts | 123° |
| 2026-05-04 17:33 | 45.78672 | 9.44232 | 26531 ft | 418 kts | 123° |
| 2026-05-04 17:33 | 45.77187 | 9.47801 | 25995 ft | 414 kts | 123° |
| 2026-05-04 17:34 | 45.72826 | 9.58283 | 24457 ft | 403 kts | 123° |
| 2026-05-04 17:34 | 45.71400 | 9.61708 | 23978 ft | 399 kts | 123° |
| 2026-05-04 17:35 | 45.67182 | 9.71796 | 22490 ft | 386 kts | 123° |
| 2026-05-04 17:35 | 45.65299 | 9.78808 | 21648 ft | 380 kts | 103° |
| 2026-05-04 17:35 | 45.65017 | 9.82591 | 21204 ft | 378 kts | 92° |
| 2026-05-04 17:36 | 45.65014 | 9.86295 | 20790 ft | 376 kts | 91° |
| 2026-05-04 17:36 | 45.65009 | 9.90028 | 20354 ft | 374 kts | 91° |
| 2026-05-04 17:36 | 45.64998 | 9.93743 | 19756 ft | 375 kts | 92° |
| 2026-05-04 17:36 | 45.64983 | 9.97530 | 18865 ft | 385 kts | 91° |
| 2026-05-04 17:37 | 45.64967 | 10.01361 | 18195 ft | 386 kts | 91° |
| 2026-05-04 17:37 | 45.64949 | 10.05194 | 17582 ft | 384 kts | 92° |
| 2026-05-04 17:37 | 45.64934 | 10.08992 | 17001 ft | 380 kts | 92° |
| 2026-05-04 17:37 | 45.64673 | 10.12713 | 16486 ft | 373 kts | 108° |
| 2026-05-04 17:38 | 45.64047 | 10.14959 | 16164 ft | 365 kts | 122° |
| 2026-05-04 17:38 | 45.62488 | 10.17791 | 15639 ft | 355 kts | 141° |
| 2026-05-04 17:38 | 45.60530 | 10.19807 | 15081 ft | 350 kts | 149° |
| 2026-05-04 17:38 | 45.58503 | 10.21699 | 14612 ft | 345 kts | 149° |
| 2026-05-04 17:39 | 45.54520 | 10.25407 | 13650 ft | 335 kts | 149° |
| 2026-05-04 17:39 | 45.52600 | 10.27198 | 13100 ft | 332 kts | 149° |
| 2026-05-04 17:39 | 45.50653 | 10.29015 | 12568 ft | 329 kts | 149° |
| 2026-05-04 17:40 | 45.48768 | 10.30770 | 12018 ft | 326 kts | 149° |
| 2026-05-04 17:40 | 45.46866 | 10.32539 | 11407 ft | 326 kts | 149° |
| 2026-05-04 17:40 | 45.44971 | 10.34299 | 10789 ft | 324 kts | 148° |
| 2026-05-04 17:40 | 45.43103 | 10.36032 | 10229 ft | 315 kts | 148° |
| 2026-05-04 17:41 | 45.41298 | 10.37707 | 9794 ft | 303 kts | 148° |
| 2026-05-04 17:41 | 45.39564 | 10.39317 | 9369 ft | 292 kts | 148° |
| 2026-05-04 17:41 | 45.37889 | 10.40872 | 8958 ft | 282 kts | 148° |
| 2026-05-04 17:41 | 45.36273 | 10.42373 | 8534 ft | 274 kts | 148° |
| 2026-05-04 17:42 | 45.34684 | 10.43843 | 8139 ft | 272 kts | 148° |
| 2026-05-04 17:42 | 45.33094 | 10.45315 | 7722 ft | 272 kts | 148° |
| 2026-05-04 17:42 | 45.31515 | 10.46774 | 7279 ft | 268 kts | 148° |
| 2026-05-04 17:42 | 45.29969 | 10.48203 | 6831 ft | 263 kts | 148° |
| 2026-05-04 17:43 | 45.28437 | 10.49616 | 6400 ft | 261 kts | 148° |
| 2026-05-04 17:43 | 45.26930 | 10.51008 | 5933 ft | 255 kts | 148° |
| 2026-05-04 17:43 | 45.25504 | 10.52455 | 5489 ft | 250 kts | 138° |
| 2026-05-04 17:43 | 45.24271 | 10.54157 | 5118 ft | 243 kts | 137° |
| 2026-05-04 17:44 | 45.23084 | 10.55802 | 4816 ft | 233 kts | 137° |
| 2026-05-04 17:44 | 45.21952 | 10.57365 | 4563 ft | 220 kts | 137° |
| 2026-05-04 17:44 | 45.21025 | 10.59004 | 4271 ft | 210 kts | 114° |
| 2026-05-04 17:44 | 45.20874 | 10.60988 | 4108 ft | 200 kts | 80° |
| 2026-05-04 17:45 | 45.21482 | 10.62696 | 3972 ft | 194 kts | 49° |
| 2026-05-04 17:45 | 45.22427 | 10.64068 | 3819 ft | 194 kts | 45° |
| 2026-05-04 17:45 | 45.23376 | 10.65421 | 3667 ft | 194 kts | 45° |
| 2026-05-04 17:45 | 45.24322 | 10.66780 | 3515 ft | 192 kts | 45° |
| 2026-05-04 17:46 | 45.25254 | 10.68124 | 3363 ft | 191 kts | 45° |
| 2026-05-04 17:46 | 45.26174 | 10.69451 | 3209 ft | 191 kts | 44° |
| 2026-05-04 17:46 | 45.27102 | 10.70790 | 3102 ft | 189 kts | 44° |
| 2026-05-04 17:46 | 45.27986 | 10.72067 | 3023 ft | 173 kts | 44° |
| 2026-05-04 17:47 | 45.28805 | 10.73250 | 2929 ft | 165 kts | 44° |
| 2026-05-04 17:47 | 45.29582 | 10.74373 | 2754 ft | 156 kts | 43° |
| 2026-05-04 17:47 | 45.30332 | 10.75458 | 2554 ft | 152 kts | 43° |
| 2026-05-04 17:47 | 45.31069 | 10.76525 | 2366 ft | 150 kts | 42° |
| 2026-05-04 17:48 | 45.31799 | 10.77580 | 2162 ft | 149 kts | 43° |
| 2026-05-04 17:48 | 45.32529 | 10.78636 | 1967 ft | 150 kts | 43° |
| 2026-05-04 17:48 | 45.33261 | 10.79696 | 1766 ft | 149 kts | 42° |
| 2026-05-04 17:48 | 45.33988 | 10.80750 | 1571 ft | 150 kts | 43° |
| 2026-05-04 17:49 | 45.34714 | 10.81802 | 1367 ft | 148 kts | 43° |
| 2026-05-04 17:49 | 45.35435 | 10.82848 | 1168 ft | 148 kts | 43° |
| 2026-05-04 17:49 | 45.36154 | 10.83891 | 981 ft | 148 kts | 43° |
| 2026-05-04 17:49 | 45.36877 | 10.84949 | 790 ft | 150 kts | 44° |
| 2026-05-04 17:50 | 45.37610 | 10.86000 | 579 ft | 150 kts | 44° |
| 2026-05-04 17:50 | 45.38330 | 10.87059 | 402 ft | 148 kts | 44° |
| 2026-05-04 17:50 | 45.39051 | 10.88106 | 248 ft | 146 kts | 43° |
| 2026-05-04 17:50 | 45.39686 | 10.89012 | 238 ft | 107 kts | 46° |
| 2026-05-04 17:51 | 45.40082 | 10.89584 | 239 ft | 51 kts | 46° |
| 2026-05-04 17:51 | 45.40266 | 10.89870 | 238 ft | 19 kts | 53° |
| 2026-05-04 17:51 | 45.40300 | 10.90051 | 237 ft | 17 kts | 77° |
| 2026-05-04 17:51 | 45.40321 | 10.90156 | 237 ft | 12 kts | 74° |
| 2026-05-04 17:52 | 45.40342 | 10.90272 | 237 ft | 8 kts | 73° |
| 2026-05-04 17:52 | 45.40374 | 10.90342 | 237 ft | 9 kts | 48° |
| 2026-05-04 17:52 | 45.40424 | 10.90417 | 237 ft | 11 kts | 47° |
| 2026-05-04 17:52 | 45.40474 | 10.90493 | 237 ft | 7 kts | 45° |
| 2026-05-04 17:53 | 45.40507 | 10.90540 | 237 ft | 4 kts | 49° |
| 2026-05-04 17:53 | 45.40501 | 10.90579 | 237 ft | 5 kts | 123° |
| 2026-05-04 17:53 | 45.40476 | 10.90617 | 237 ft | 1 kts | 134° |
| 2026-05-04 17:53 | 45.40469 | 10.90628 | 237 ft | 0 kts | 134° |